Map

Track Data

SID SEASON NUMBER BASIN SUBBASIN NAME ISO_TIME NATURE LAT LON WMO_WIND WMO_PRES WMO_AGENCY TRACK_TYPE DIST2LAND LANDFALL IFLAG USA_AGENCY USA_ATCF_ID USA_LAT USA_LON USA_RECORD USA_STATUS USA_WIND USA_PRES USA_SSHS USA_R34_NE USA_R34_SE USA_R34_SW USA_R34_NW USA_R50_NE USA_R50_SE USA_R50_SW USA_R50_NW USA_R64_NE USA_R64_SE USA_R64_SW USA_R64_NW USA_POCI USA_ROCI USA_RMW USA_EYE TOKYO_LAT TOKYO_LON TOKYO_GRADE TOKYO_WIND TOKYO_PRES TOKYO_R50_DIR TOKYO_R50_LONG TOKYO_R50_SHORT TOKYO_R30_DIR TOKYO_R30_LONG TOKYO_R30_SHORT TOKYO_LAND CMA_LAT CMA_LON CMA_CAT CMA_WIND CMA_PRES HKO_LAT HKO_LON HKO_CAT HKO_WIND HKO_PRES NEWDELHI_LAT NEWDELHI_LON NEWDELHI_GRADE NEWDELHI_WIND NEWDELHI_PRES NEWDELHI_CI NEWDELHI_DP NEWDELHI_POCI REUNION_LAT REUNION_LON REUNION_TYPE REUNION_WIND REUNION_PRES REUNION_TNUM REUNION_CI REUNION_RMW REUNION_R34_NE REUNION_R34_SE REUNION_R34_SW REUNION_R34_NW REUNION_R50_NE REUNION_R50_SE REUNION_R50_SW REUNION_R50_NW REUNION_R64_NE REUNION_R64_SE REUNION_R64_SW REUNION_R64_NW BOM_LAT BOM_LON BOM_TYPE BOM_WIND BOM_PRES BOM_TNUM BOM_CI BOM_RMW BOM_R34_NE BOM_R34_SE BOM_R34_SW BOM_R34_NW BOM_R50_NE BOM_R50_SE BOM_R50_SW BOM_R50_NW BOM_R64_NE BOM_R64_SE BOM_R64_SW BOM_R64_NW BOM_ROCI BOM_POCI BOM_EYE BOM_POS_METHOD BOM_PRES_METHOD NADI_LAT NADI_LON NADI_CAT NADI_WIND NADI_PRES WELLINGTON_LAT WELLINGTON_LON WELLINGTON_WIND WELLINGTON_PRES DS824_LAT DS824_LON DS824_STAGE DS824_WIND DS824_PRES TD9636_LAT TD9636_LON TD9636_STAGE TD9636_WIND TD9636_PRES TD9635_LAT TD9635_LON TD9635_WIND TD9635_PRES TD9635_ROCI NEUMANN_LAT NEUMANN_LON NEUMANN_CLASS NEUMANN_WIND NEUMANN_PRES MLC_LAT MLC_LON MLC_CLASS MLC_WIND MLC_PRES USA_GUST BOM_GUST BOM_GUST_PER REUNION_GUST REUNION_GUST_PER USA_SEAHGT USA_SEARAD_NE USA_SEARAD_SE USA_SEARAD_SW USA_SEARAD_NW STORM_SPEED STORM_DIR
1961061S11137 1961 27 SP EA NOT_NAMED 1961-03-02 02:30:00 NR -11.0000 136.500 995 bom main 111 111 ______O_______ -1 -11.0000 136.500 995 10 104
1961061S11137 1961 27 SP EA NOT_NAMED 1961-03-02 03:00:00 NR -11.0193 136.582 main 112 103 ______P_______ -1 -11.0193 136.582 994 12 104
1961061S11137 1961 27 SP EA NOT_NAMED 1961-03-02 06:00:00 TS -11.1666 137.163 main 117 117 ______P_____O_ -1 -11.1555 137.118 993 -11.2000 137.300 TC 40 994 13 106
1961061S11137 1961 27 SP EA NOT_NAMED 1961-03-02 09:00:00 TS -11.3888 137.872 main 140 140 ______P_____P_ -1 -11.3835 137.839 992 -11.3995 137.938 TC 42 993 14 106
1961061S11137 1961 27 SP EA NOT_NAMED 1961-03-02 11:00:00 TS -11.5060 138.342 main 167 176 ______P___O_P_ -1 -11.6252 138.504 992 -10.8000 137.300 1 -11.5824 138.474 TC 44 992 14 103
1961061S11137 1961 27 SP EA NOT_NAMED 1961-03-02 11:30:00 TS -11.5140 138.445 992 bom main 176 176 ______O___P_P_ -1 -11.7000 138.700 992 -10.8927 137.560 1 -11.6386 138.631 TC 44 992 9 76
1961061S11137 1961 27 SP EA NOT_NAMED 1961-03-02 12:00:00 TS -11.4700 138.486 main 186 186 O_____P__OP_O_ jtwc_sh SH231961 -11.0000 137.900 -1 -11.7810 138.909 991 -11.0000 137.900 TC -10.9853 137.821 1 -11.7000 138.800 TC 45 992 24 107
1961061S11137 1961 27 SP EA NOT_NAMED 1961-03-02 15:00:00 TS -11.9226 139.803 main 209 107 P_____P__PP_P_ SH231961 -11.5522 139.521 -1 -12.3140 140.257 989 -11.5522 139.521 TC -11.5371 139.364 1 -12.1510 139.999 TC 47 990 27 110
1961061S11137 1961 27 SP EA NOT_NAMED 1961-03-02 17:00:00 TS -12.2359 140.678 988 bom main 107 58 P_____O__PP_P_ SH231961 -11.9175 140.532 -1 -12.6000 141.000 988 4 -11.9175 140.532 TC -11.9026 140.352 1 -12.4628 140.827 TC 49 988 27 110
1961061S11137 1961 27 SP EA NOT_NAMED 1961-03-02 18:00:00 TS -12.3769 141.074 main 58 0 O_____P__OP_O_ jtwc_sh SH231961 -12.1000 141.000 -1 -12.6762 141.218 988 -12.1000 141.000 TC -12.0849 140.826 1 -12.6000 141.200 TC 50 988 23 111
1961061S11137 1961 27 SP EA NOT_NAMED 1961-03-02 20:00:00 TS -12.6597 141.794 988 bom main 0 0 P_____O__PP_P_ SH231961 -12.4658 141.843 -1 -12.8000 141.600 988 -12.4658 141.843 TC -12.4497 141.722 1 -12.7260 141.703 TC 50 988 22 112
1961061S11137 1961 27 SP EA NOT_NAMED 1961-03-02 21:00:00 TS -12.7923 142.124 main 0 0 P_____P__PP_P_ SH231961 -12.6491 142.220 -1 -12.8105 141.768 988 -12.6491 142.220 TC -12.6325 142.139 1 -12.7806 141.923 TC 50 989 22 115
1961061S11137 1961 27 SP EA NOT_NAMED 1961-03-02 23:00:00 TS -13.1151 142.816 990 bom main 0 0 P_____O__PO_P_ SH231961 -13.0163 142.897 -1 -13.1000 142.500 990 -13.0163 142.897 TC -13.0000 142.900 2 -12.9519 142.401 TC 50 989 24 117
1961061S11137 1961 27 SP EA NOT_NAMED 1961-03-03 00:00:00 TS -13.3390 143.220 main 0 0 O_____P__OP_O_ jtwc_sh SH231961 -13.2000 143.200 -1 -13.5488 143.278 990 -13.2000 143.200 TC -13.1852 143.239 2 -13.1000 142.700 TC 50 990 28 120
1961061S11137 1961 27 SP EA NOT_NAMED 1961-03-03 00:30:00 TS -13.4620 143.431 991 bom main 0 0 P_____O__PP_P_ SH231961 -13.2902 143.347 -1 -13.8000 143.700 991 -13.2902 143.347 TC -13.2782 143.399 2 -13.2117 142.897 TC 49 990 27 122
1961061S11137 1961 27 SP EA NOT_NAMED 1961-03-03 03:00:00 TS -14.0545 144.374 main 22 11 P_____P__PP_P_ SH231961 -13.7416 143.996 -1 -14.7249 145.244 990 -13.7416 143.996 TC -13.7478 144.117 2 -13.9339 144.045 TC 47 990 25 124
1961061S11137 1961 27 SP EA NOT_NAMED 1961-03-03 06:00:00 TS -14.7366 145.345 main 24 24 O_____P__OP_O_ jtwc_sh SH231961 -14.3000 144.700 -1 -15.4856 146.416 990 -14.3000 144.700 TC -14.3213 144.853 2 -14.9000 145.500 TC 45 990 22 126
1961061S11137 1961 27 SP EA NOT_NAMED 1961-03-03 09:00:00 TS -15.3594 146.202 main 86 86 P_____P__PP_P_ SH231961 -14.8922 145.485 -1 -16.0101 147.129 990 -14.8922 145.485 TC -14.9055 145.534 2 -15.6746 146.720 TC 45 990 20 127
1961061S11137 1961 27 SP EA NOT_NAMED 1961-03-03 11:00:00 TS -15.7514 146.731 990 bom main 132 143 P_____O__PO_P_ SH231961 -15.2972 146.025 -1 -16.3000 147.500 990 -15.2972 146.025 TC -15.3000 146.000 1 -16.1113 147.406 TC 45 990 20 127
1961061S11137 1961 27 SP EA NOT_NAMED 1961-03-03 12:00:00 TS -15.9469 147.010 main 161 170 O_____P__OP_O_ jtwc_sh SH231961 -15.5000 146.300 -1 -16.4737 147.773 990 -15.5000 146.300 TC -15.5078 146.285 1 -16.3000 147.700 TC 45 990 19 126
1961061S11137 1961 27 SP EA NOT_NAMED 1961-03-03 15:00:00 TS -16.4876 147.785 main 207 207 P_____P__PP_P_ SH231961 -16.0998 147.150 -1 -16.9237 148.480 990 -16.0998 147.150 TC -16.1415 147.162 1 -16.7364 148.369 TC 45 990 18 126
1961061S11137 1961 27 SP EA NOT_NAMED 1961-03-03 18:00:00 TS -16.9955 148.501 main 258 258 O_____P__OP_O_ jtwc_sh SH231961 -16.7000 148.000 -1 -17.3148 149.073 991 -16.7000 148.000 TC -16.7658 148.041 1 -17.1000 148.900 TC 45 991 17 127
1961061S11137 1961 27 SP EA NOT_NAMED 1961-03-03 21:00:00 TS -17.5048 149.215 main 285 281 P_____P__PP_P_ SH231961 -17.3149 148.838 -1 -17.7076 149.622 991 -17.3149 148.838 TC -17.3492 148.882 1 -17.5274 149.543 TC 45 991 17 127
1961061S11137 1961 27 SP EA NOT_NAMED 1961-03-03 23:00:00 TS -17.8390 149.679 992 bom main 286 273 P_____O__PO_P_ SH231961 -17.7114 149.359 -1 -18.0000 150.000 992 -17.7114 149.359 TC -17.7000 149.400 1 -17.8359 149.981 TC 45 991 17 128
1961061S11137 1961 27 SP EA NOT_NAMED 1961-03-04 00:00:00 TS -18.0190 149.895 main 279 260 O_____P__OP_O_ jtwc_sh SH231961 -17.9000 149.600 -1 -18.2300 150.138 992 -17.9000 149.600 TC -17.8838 149.629 1 -18.0000 150.200 TC 45 992 17 133
1961061S11137 1961 27 SP EA NOT_NAMED 1961-03-04 03:00:00 TS -18.5885 150.526 main 260 260 P_____P__PP_P_ SH231961 -18.4670 150.230 -1 -18.9502 150.567 992 -18.4670 150.230 TC -18.3986 150.257 1 -18.5788 150.775 TC 42 992 16 130
1961061S11137 1961 27 SP EA NOT_NAMED 1961-03-04 06:00:00 TS -19.0554 151.205 main 284 284 O_____P__OP_O_ jtwc_sh SH231961 -18.9000 150.800 -1 -19.5234 151.253 993 -18.9000 150.800 TC -18.8227 150.833 1 -19.1000 151.500 TC 40 993 16 120
1961061S11137 1961 27 SP EA NOT_NAMED 1961-03-04 08:00:00 TS -19.2688 151.753 994 bom main 331 331 P_____O__PP_P_ SH231961 -19.0984 151.184 -1 -19.7000 152.000 994 -19.0984 151.184 TC -19.0318 151.211 1 -19.3813 152.285 TC 38 994 17 109
1961061S11137 1961 27 SP EA NOT_NAMED 1961-03-04 09:00:00 TS -19.3347 152.057 main 360 360 P_____P__PP_P_ SH231961 -19.1621 151.377 -1 -19.7030 152.527 994 -19.1621 151.377 TC -19.1091 151.403 1 -19.4873 152.709 TC 37 994 17 98
1961061S11137 1961 27 SP EA NOT_NAMED 1961-03-04 11:00:00 TS -19.3859 152.655 996 bom main 394 394 P_____O__PO_P_ SH231961 -19.2138 151.783 -1 -19.6000 153.600 996 -19.2138 151.783 TC -19.2000 151.800 2 -19.6020 153.493 TC 35 995 16 93
1961061S11137 1961 27 SP EA NOT_NAMED 1961-03-04 12:00:00 TS -19.3724 152.918 main 405 411 O_____P__OP_O_ jtwc_sh SH231961 -19.2000 152.000 -1 -19.5311 153.980 996 -19.2000 152.000 TC -19.2030 152.027 2 -19.6000 153.800 TC 35 996 13 75
1961061S11137 1961 27 SP EA NOT_NAMED 1961-03-04 15:00:00 TS -19.1642 153.524 main 461 476 P_____P__PP_P_ SH231961 -19.0101 152.743 -1 -19.2213 154.617 996 -19.0101 152.743 TC -19.0790 152.733 2 -19.3387 154.178 TC 35 996 11 61
1961061S11137 1961 27 SP EA NOT_NAMED 1961-03-04 18:00:00 TS -18.8208 153.983 main 529 529 O_____P__OP_O_ jtwc_sh SH231961 -18.7000 153.500 -1 -18.8253 154.748 996 -18.7000 153.500 TC -18.8182 153.451 2 -18.9000 154.300 TC 35 996 11 50
1961061S11137 1961 27 SP EA NOT_NAMED 1961-03-04 21:00:00 TS -18.4813 154.394 main 581 581 P_____P__PP_P_ SH231961 -18.4347 154.172 -1 -18.4267 154.689 996 -18.4347 154.172 TC -18.5017 154.153 2 -18.5198 154.555 TC 35 996 10 50
1961061S11137 1961 27 SP EA NOT_NAMED 1961-03-04 23:00:00 TS -18.2750 154.675 996 bom main 619 619 P_____O__PO_P_ SH231961 -18.2718 154.594 -1 -18.2000 154.700 996 -18.2718 154.594 TC -18.3000 154.600 1 -18.2937 154.769 TC 35 996 10 56
1961061S11137 1961 27 SP EA NOT_NAMED 1961-03-05 00:00:00 TS -18.1932 154.843 main 635 642 O_____P__OP_O_ jtwc_sh SH231961 -18.2000 154.800 -1 -18.1283 154.845 995 -18.2000 154.800 TC -18.2309 154.812 1 -18.2000 154.900 TC 35 996 11 69
1961061S11137 1961 27 SP EA NOT_NAMED 1961-03-05 03:00:00 TS -18.0167 155.397 main 694 694 P_____P__PP_P_ SH231961 -18.0348 155.415 -1 -17.9626 155.340 995 -18.0348 155.415 TC -18.0336 155.422 1 -18.0126 155.412 TC 37 995 11 74
1961061S11137 1961 27 SP EA NOT_NAMED 1961-03-05 06:00:00 TS -17.8834 155.971 main 747 747 O_____P__OP_O_ jtwc_sh SH231961 -17.9000 156.000 -1 -17.8491 155.902 994 -17.9000 156.000 TC -17.8536 155.998 1 -17.9000 156.000 TC 40 995 11 77
1961061S11137 1961 27 SP EA NOT_NAMED 1961-03-05 09:00:00 TS -17.7564 156.539 main 793 801 P_____P__PP_P_ SH231961 -17.7423 156.565 -1 -17.7598 156.498 994 -17.7423 156.565 TC -17.6938 156.547 1 -17.7998 156.550 TC 40 994 11 77
1961061S11137 1961 27 SP EA NOT_NAMED 1961-03-05 11:00:00 TS -17.6767 156.912 994 bom main 801 785 P_____O__PO_P_ SH231961 -17.6442 156.925 -1 -17.7000 156.900 994 -17.6442 156.925 TC -17.6000 156.900 1 -17.7363 156.917 TC 40 994 11 77
1961061S11137 1961 27 SP EA NOT_NAMED 1961-03-05 12:00:00 TS -17.6362 157.096 main 785 742 O_____P__OP_O_ jtwc_sh SH231961 -17.6000 157.100 -1 -17.6597 157.096 994 -17.6000 157.100 TC -17.5577 157.081 1 -17.7000 157.100 TC 40 994 11 77
1961061S11137 1961 27 SP EA NOT_NAMED 1961-03-05 15:00:00 TS -17.5148 157.641 main 742 691 P_____P__PP_P_ SH231961 -17.4923 157.607 -1 -17.5396 157.695 994 -17.4923 157.607 TC -17.4480 157.611 1 -17.5498 157.643 TC 40 994 11 77
1961061S11137 1961 27 SP EA NOT_NAMED 1961-03-05 18:00:00 TS -17.3996 158.178 main 691 651 O_____P__OP_O_ jtwc_sh SH231961 -17.4000 158.100 -1 -17.4175 158.288 994 -17.4000 158.100 TC -17.3544 158.118 1 -17.4000 158.200 TC 40 994 11 78
1961061S11137 1961 27 SP EA NOT_NAMED 1961-03-05 21:00:00 TS -17.2877 158.720 main 651 621 P_____P__PP_P_ SH231961 -17.3000 158.615 -1 -17.2899 158.852 994 -17.3000 158.615 TC -17.2643 158.597 1 -17.3002 158.830 TC 40 994 10 77
1961061S11137 1961 27 SP EA NOT_NAMED 1961-03-05 23:00:00 TS -17.2104 159.060 994 bom main 621 612 P_____O__PO_P_ SH231961 -17.2333 158.945 -1 -17.2000 159.200 994 -17.2333 158.945 TC -17.2000 158.900 1 -17.2365 159.226 TC 40 994 10 77
1961061S11137 1961 27 SP EA NOT_NAMED 1961-03-06 00:00:00 TS -17.1734 159.223 main 612 577 O_____P__OP_O_ jtwc_sh SH231961 -17.2000 159.100 -1 -17.1687 159.379 -17.2000 159.100 TC -17.1714 159.058 1 -17.2000 159.400 TC 40 994 9 76
1961061S11137 1961 27 SP EA NOT_NAMED 1961-03-06 03:00:00 TS -17.0629 159.667 main 577 559 P_____P__PP_P_ SH231961 -17.1149 159.522 -1 -17.0809 159.891 -17.1149 159.522 TC -17.0846 159.513 1 -17.0572 159.780 TC 40 994 8 73
1961061S11137 1961 27 SP MM NOT_NAMED 1961-03-06 06:00:00 TS -16.9331 160.065 main 559 544 O_____P__OP_O_ jtwc_sh SH231961 -17.0000 159.900 -1 -16.9840 160.354 -17.0000 159.900 TC -16.9786 159.931 1 -16.9000 160.100 TC 40 994 8 69
1961061S11137 1961 27 SP MM NOT_NAMED 1961-03-06 09:00:00 TS -16.7750 160.442 main 544 537 P_____P__PP_P_ SH231961 -16.8374 160.265 -1 -16.8550 160.749 -16.8374 160.265 TC -16.8316 160.295 1 -16.7575 160.507 TC 40 994 8 63
1961061S11137 1961 27 SP MM NOT_NAMED 1961-03-06 11:00:00 TS -16.6430 160.667 main 539 532 P_____P__PO_P_ SH231961 -16.6890 160.492 -1 -16.7398 160.965 -16.6890 160.492 TC -16.7000 160.500 1 -16.6557 160.775 TC 40 994 8 57
1961061S11137 1961 27 SP MM NOT_NAMED 1961-03-06 12:00:00 TS -16.5662 160.773 main 532 532 O_____P__OP_O_ jtwc_sh SH231961 -16.6000 160.600 -1 -16.6709 161.057 -16.6000 160.600 TC -16.6183 160.610 1 -16.6000 160.900 TC 40 994 8 48
1961061S11137 1961 27 SP MM NOT_NAMED 1961-03-06 15:00:00 TS -16.2964 161.072 main 539 539 P_____P__PP_P_ SH231961 -16.2651 160.960 -1 -16.4087 161.259 -16.2651 160.960 TC -16.3294 160.898 1 -16.4450 161.260 TC 40 994 8 44
1961061S11137 1961 27 SP MM NOT_NAMED 1961-03-06 16:00:00 TS -16.1938 161.151 994 bom main 542 542 P_____O__PP_P_ SH231961 -16.1418 161.061 -1 -16.3000 161.300 994 -16.1418 161.061 TC -16.2216 160.977 1 -16.3783 161.358 TC 40 994 8 30
1961061S11137 1961 27 SP MM NOT_NAMED 1961-03-06 18:00:00 TS -15.9725 161.267 main 555 540 O_____P__OP_O_ jtwc_sh SH231961 -15.9000 161.200 -1 -16.0401 161.367 994 -15.9000 161.200 TC -15.9941 161.104 1 -16.2000 161.500 TC 40 994 7 15
1961061S11137 1961 27 SP MM NOT_NAMED 1961-03-06 21:00:00 TS -15.6218 161.316 main 540 517 P_____P__PP_P_ SH231961 -15.5999 161.225 -1 -15.6006 161.368 994 -15.5999 161.225 TC -15.6374 161.205 1 -15.7798 161.605 TC 40 994 7 0
1961061S11137 1961 27 SP MM NOT_NAMED 1961-03-06 23:00:00 TS -15.3785 161.267 994 bom main 517 506 P_____O__PO_P_ SH231961 -15.4030 161.152 -1 -15.3000 161.300 994 -15.4030 161.152 TC -15.4000 161.200 1 -15.4573 161.562 TC 40 994 8 345
1961061S11137 1961 27 SP MM NOT_NAMED 1961-03-07 00:00:00 TS -15.2599 161.217 main 508 467 O_____P__OP_O_ jtwc_sh SH231961 -15.3000 161.100 -1 -15.1618 161.224 -15.3000 161.100 TC -15.2978 161.176 1 -15.3000 161.500 TC 40 994 9 329
1961061S11137 1961 27 SP MM NOT_NAMED 1961-03-07 03:00:00 TS -14.8952 160.963 main 467 434 P_____P__PP_P_ SH231961 -14.9500 160.937 -1 -14.7563 160.865 -14.9500 160.937 TC -14.9939 161.011 1 -14.8852 161.152 TC 40 994 9 321
1961061S11137 1961 27 SP MM NOT_NAMED 1961-03-07 06:00:00 TS -14.5314 160.612 main 434 414 O_____P__OP_O_ jtwc_sh SH231961 -14.6000 160.700 -1 -14.3626 160.383 -14.6000 160.700 TC -14.6816 160.745 1 -14.5000 160.700 TC 40 994 10 315
1961061S11137 1961 27 SP MM NOT_NAMED 1961-03-07 09:00:00 TS -14.1908 160.241 main 418 403 P_____P__PP_P_ SH231961 -14.3150 160.415 -1 -13.9790 159.867 -14.3150 160.415 TC -14.3453 160.423 1 -14.1499 160.350 TC 40 994 10 314
1961061S11137 1961 27 SP EA NOT_NAMED 1961-03-07 11:00:00 TS -13.9580 159.994 main 408 394 P_____P__PO_P_ SH231961 -14.1145 160.205 -1 -13.7284 159.548 -14.1145 160.205 TC -14.1000 160.200 1 -13.9197 160.120 TC 40 994 10 315
1961061S11137 1961 27 SP EA NOT_NAMED 1961-03-07 12:00:00 TS -13.8354 159.874 main 394 381 O_____P__OP_O_ jtwc_sh SH231961 -14.0000 160.100 -1 -13.6046 159.406 -14.0000 160.100 TC -13.9695 160.091 1 -13.8000 160.000 TC 40 995 11 319
1961061S11137 1961 27 SP EA NOT_NAMED 1961-03-07 15:00:00 TS -13.4210 159.512 main 381 368 P_____P__PP_P_ SH231961 -13.5825 159.795 -1 -13.2389 159.089 -13.5825 159.795 TC -13.5494 159.777 1 -13.4002 159.525 TC 37 995 11 322
1961061S11137 1961 27 SP EA NOT_NAMED 1961-03-07 17:00:00 TS -13.1315 159.314 996 bom main 368 364 P_____O__PP_P_ SH231961 -13.2641 159.598 -1 -13.0000 159.000 996 -13.2641 159.598 TC -13.2501 159.577 1 -13.1303 159.273 TC 35 995 11 327
1961061S11137 1961 27 SP EA NOT_NAMED 1961-03-07 18:00:00 TS -12.9720 159.218 main 364 320 O_____P__OP_O_ jtwc_sh SH231961 -13.1000 159.500 -1 -12.8591 159.015 996 -13.1000 159.500 TC -13.0960 159.479 1 -13.0000 159.200 TC 35 996 9 349
1961061S11137 1961 27 SP EA NOT_NAMED 1961-03-07 21:00:00 TS -12.5566 159.199 main 320 285 ______P___P_P_ SH231961 -1 -12.4744 159.159 996 TC -12.6217 159.190 1 -12.5824 159.253 TC 35 996 8 8
1961061S11137 1961 27 SP EA NOT_NAMED 1961-03-07 23:00:00 TS -12.3421 159.317 996 bom main 285 283 ______O___O_P_ SH231961 -1 -12.3000 159.300 996 TC -12.3000 159.000 2 -12.3683 159.410 TC 35 996 7 40
1961061S11137 1961 27 SP EA NOT_NAMED 1961-03-08 00:00:00 TS -12.2774 159.435 main 283 265 ______P_____O_ -1 -12.2490 159.379 996 2 -12.3000 159.500 TC 35 996 6 76
1961061S11137 1961 27 SP EA NOT_NAMED 1961-03-08 03:00:00 TS -12.2490 159.708 main 265 258 ______P_____P_ -1 -12.2303 159.652 996 2 -12.2676 159.765 TC 35 996 5 102
1961061S11137 1961 27 SP EA NOT_NAMED 1961-03-08 06:00:00 TS -12.3808 159.950 main 266 259 ______P_____O_ -1 -12.3616 159.899 996 2 -12.4000 160.000 TC 35 996 5 128
1961061S11137 1961 27 SP MM NOT_NAMED 1961-03-08 08:00:00 TS -12.5021 160.041 997 bom main 268 261 ______O_____P_ -1 -12.5000 160.000 997 2 -12.5042 160.081 TC 35 996 4 150
1961061S11137 1961 27 SP MM NOT_NAMED 1961-03-08 09:00:00 TS -12.5737 160.062 main 271 271 ______P_____P_ -1 -12.5775 160.021 997 2 -12.5700 160.102 TC 35 996 5 0
1961061S11137 1961 27 SP MM NOT_NAMED 1961-03-08 12:00:00 TS -12.8138 160.048 main 295 295 ______P_____O_ -1 -12.8322 159.979 997 -12.8000 160.100 TC 35 997 5 194
1961061S11137 1961 27 SP EA NOT_NAMED 1961-03-08 15:00:00 TS -13.0723 159.943 main 329 329 ______P_____P_ -1 -13.1094 159.828 998 -13.0475 160.020 TC 32 998 6 203
1961061S11137 1961 27 SP EA NOT_NAMED 1961-03-08 17:00:00 TS -13.2437 159.861 999 bom main 339 348 ______O_____P_ -1 -13.3000 159.700 999 -13.2156 159.942 TC 30 998 5 189
1961061S11137 1961 27 SP EA NOT_NAMED 1961-03-08 18:00:00 TS -13.3000 159.900 main 348 ____________O_ -1 -13.3000 159.900 TC 30 999 4 145

Digital Typhoon Data and Search

About IBTrACS Database

This database is a web-friendly format of International Best Track Archive for Climate Stewardship (IBTrACS), a global best track data archive curated by NOAA dating back to 1842.

Updated: 2021-10-25